Time;durP1;ratioP1;P1;durP2;ratioP2;P2;SDS_P1;SDS_P2;PMS_P1;PMS_P2;Temp;Humidity;BMP_temperature;BMP_pressure;BME280_temperature;BME280_humidity;BME280_pressure;Samples;Min_cycle;Max_cycle;Signal;HPM_P1;HPM_P2
2022/12/29 00:00:07;;;;;;;38.97;25.65;;;12.20;90.70;;;;;;5076630;28;20109;-78
2022/12/29 00:02:32;;;;;;;37.67;25.00;;;12.10;90.80;;;;;;5059772;28;20036;-79
2022/12/29 00:04:58;;;;;;;37.10;25.33;;;12.10;90.80;;;;;;5076622;28;20035;-77
2022/12/29 00:07:24;;;;;;;34.35;24.63;;;12.10;90.90;;;;;;5095005;28;20028;-79
2022/12/29 00:09:49;;;;;;;34.83;23.10;;;12.10;90.90;;;;;;5077397;28;20031;-79
2022/12/29 00:12:15;;;;;;;35.28;23.65;;;12.10;90.90;;;;;;5094785;28;20044;-77
2022/12/29 00:17:24;;;;;;;;;;;11.90;90.90;;;;;;5094784;28;20112;-79
2022/12/29 00:36:38;;;;;;;30.10;21.92;;;11.80;91.00;;;;;;5096414;28;20035;-76
2022/12/29 00:45:05;;;;;;;30.70;21.35;;;11.80;91.10;;;;;;5051404;28;20551;-78
2022/12/29 00:47:31;;;;;;;29.67;21.38;;;11.90;91.20;;;;;;5085670;28;20478;-79
2022/12/29 00:49:57;;;;;;;32.45;21.27;;;11.90;91.00;;;;;;5094942;28;20068;-77
2022/12/29 00:52:22;;;;;;;26.23;20.55;;;11.90;91.10;;;;;;5076747;28;20067;-78
2022/12/29 00:54:48;;;;;;;30.98;20.00;;;11.80;91.10;;;;;;5076266;28;20442;-78
2022/12/29 00:57:14;;;;;;;28.42;20.48;;;11.80;91.20;;;;;;5077221;28;20039;-78
2022/12/29 00:59:42;;;;;;;28.98;19.60;;;11.80;91.20;;;;;;5095260;28;20111;-78
2022/12/29 01:02:09;;;;;;;29.33;20.10;;;11.80;91.20;;;;;;5076066;28;20082;-78
2022/12/29 01:04:35;;;;;;;30.83;20.02;;;11.90;91.20;;;;;;5075694;28;20032;-78
2022/12/29 01:07:01;;;;;;;25.50;18.65;;;11.90;91.10;;;;;;5075301;28;20404;-78
2022/12/29 01:12:11;;;;;;;25.35;18.50;;;11.80;91.00;;;;;;5093581;28;20119;-77
2022/12/29 01:14:37;;;;;;;29.92;18.45;;;11.80;91.10;;;;;;5075640;28;20066;-77
2022/12/29 01:17:04;;;;;;;31.67;18.65;;;11.80;91.10;;;;;;5075526;28;20098;-77
2022/12/29 01:19:30;;;;;;;26.52;17.88;;;11.80;91.10;;;;;;5075361;28;20399;-77
2022/12/29 01:21:56;;;;;;;26.45;17.90;;;11.80;91.10;;;;;;5075194;28;20032;-78
2022/12/29 01:24:22;;;;;;;23.77;17.15;;;11.80;91.00;;;;;;5093359;28;20036;-78
2022/12/29 01:26:48;;;;;;;22.45;16.60;;;11.80;91.00;;;;;;5074966;28;20044;-77
2022/12/29 01:29:14;;;;;;;28.17;16.92;;;11.70;91.00;;;;;;5075212;28;20046;-78
2022/12/29 01:31:40;;;;;;;24.17;16.23;;;11.70;91.00;;;;;;5074848;28;20036;-78
2022/12/29 01:34:06;;;;;;;28.83;17.55;;;11.80;91.00;;;;;;5075119;28;20032;-78
2022/12/29 01:36:33;;;;;;;24.80;16.92;;;11.80;91.00;;;;;;5093207;28;20028;-78
2022/12/29 01:38:58;;;;;;;28.92;16.98;;;11.80;91.00;;;;;;5093132;28;20036;-78
2022/12/29 01:41:24;;;;;;;28.08;16.92;;;11.80;90.90;;;;;;5093321;28;20051;-78
2022/12/29 01:43:51;;;;;;;26.45;17.10;;;11.80;91.00;;;;;;5093800;28;20035;-78
2022/12/29 01:46:43;;;;;;;23.25;15.82;;;11.80;91.00;;;;;;5093839;28;20047;-78
2022/12/29 01:49:18;;;;;;;24.70;16.20;;;11.70;90.80;;;;;;5093132;28;20486;-79
2022/12/29 01:52:04;;;;;;;22.45;15.48;;;11.70;90.70;;;;;;5074780;28;20514;-78
2022/12/29 01:54:46;;;;;;;21.33;15.85;;;11.70;90.80;;;;;;5092654;28;20120;-77
2022/12/29 01:57:16;;;;;;;25.85;15.50;;;11.70;90.80;;;;;;5074526;28;20028;-78
2022/12/29 01:59:50;;;;;;;25.17;15.48;;;11.70;90.80;;;;;;5092919;28;20058;-79
2022/12/29 02:02:16;;;;;;;20.75;15.95;;;11.70;90.80;;;;;;5092848;28;20032;-79
2022/12/29 02:04:47;;;;;;;23.35;14.10;;;11.60;90.70;;;;;;5092671;28;20086;-78
2022/12/29 02:07:22;;;;;;;22.80;14.45;;;11.60;90.80;;;;;;5074511;28;20043;-78
2022/12/29 02:09:50;;;;;;;25.75;15.43;;;11.60;90.90;;;;;;5074577;28;20108;-78
2022/12/29 02:12:21;;;;;;;23.35;15.90;;;11.60;90.80;;;;;;5073707;28;20415;-78
2022/12/29 02:14:49;;;;;;;26.70;17.60;;;11.50;90.70;;;;;;5092623;28;20436;-79
2022/12/29 02:17:39;;;;;;;23.27;15.88;;;11.50;90.80;;;;;;5074690;28;20127;-78
2022/12/29 02:20:27;;;;;;;26.17;17.33;;;11.50;90.80;;;;;;5092637;28;20399;-78
2022/12/29 02:23:32;;;;;;;20.50;16.02;;;11.40;90.80;;;;;;5074561;28;20036;-79
2022/12/29 02:26:13;;;;;;;26.02;16.58;;;11.40;90.80;;;;;;5074382;28;20140;-78
2022/12/29 02:29:11;;;;;;;25.45;16.83;;;11.30;90.80;;;;;;5074561;28;20044;-77
2022/12/29 02:32:13;;;;;;;26.60;16.48;;;11.30;90.80;;;;;;5047539;28;20044;-78
2022/12/29 02:34:41;;;;;;;25.35;17.15;;;11.30;90.80;;;;;;5074884;28;20066;-78
2022/12/29 02:37:21;;;;;;;27.45;17.48;;;11.20;90.80;;;;;;5093954;28;20040;-77
2022/12/29 02:40:18;;;;;;;25.85;16.52;;;11.20;90.80;;;;;;5093231;28;20032;-78
2022/12/29 02:43:20;;;;;;;22.52;16.70;;;11.20;90.90;;;;;;5092379;28;20495;-78
2022/12/29 02:45:58;;;;;;;24.17;17.05;;;11.10;90.90;;;;;;5011085;28;20486;-77
2022/12/29 02:48:56;;;;;;;27.70;17.55;;;11.10;90.90;;;;;;5077729;28;20036;-77
2022/12/29 02:51:32;;;;;;;27.92;19.20;;;11.10;90.80;;;;;;5080323;28;20180;-78
2022/12/29 02:56:43;;;;;;;28.90;18.02;;;11.10;91.00;;;;;;5092659;28;20542;-78
2022/12/29 02:59:10;;;;;;;27.33;18.63;;;11.10;91.00;;;;;;5092345;28;20032;-78
2022/12/29 03:04:45;;;;;;;32.38;18.85;;;11.20;90.90;;;;;;5092463;28;20035;-78
2022/12/29 03:07:46;;;;;;;30.63;18.95;;;11.20;91.00;;;;;;5074489;28;20036;-78
2022/12/29 03:10:20;;;;;;;24.73;18.13;;;11.30;90.90;;;;;;5010172;28;20081;-78
2022/12/29 03:16:03;;;;;;;24.48;18.05;;;11.40;90.80;;;;;;5092557;28;20157;-77
2022/12/29 03:18:41;;;;;;;25.17;18.02;;;11.50;90.90;;;;;;5092288;28;20038;-77
2022/12/29 03:24:21;;;;;;;26.83;18.85;;;11.60;90.70;;;;;;5094503;28;20126;-77
2022/12/29 03:26:48;;;;;;;24.27;18.90;;;11.70;90.70;;;;;;5077926;28;20450;-78
2022/12/29 03:29:18;;;;;;;28.77;19.42;;;11.60;90.70;;;;;;5077881;28;20123;-78
2022/12/29 03:31:46;;;;;;;27.20;19.13;;;11.60;90.70;;;;;;5077617;28;20040;-77
2022/12/29 03:34:13;;;;;;;27.52;19.38;;;11.60;90.70;;;;;;5077257;28;20035;-78
2022/12/29 03:36:49;;;;;;;26.67;18.35;;;11.60;90.80;;;;;;5095154;28;20132;-77
2022/12/29 03:39:16;;;;;;;27.67;19.00;;;11.50;90.80;;;;;;5077310;28;20039;-78
2022/12/29 03:41:45;;;;;;;26.30;18.92;;;11.50;90.90;;;;;;5095417;28;20047;-76
2022/12/29 03:44:12;;;;;;;26.00;18.42;;;11.50;90.90;;;;;;5095301;28;20501;-78
2022/12/29 03:46:38;;;;;;;25.90;18.55;;;11.50;90.80;;;;;;5095097;28;20101;-78
2022/12/29 03:49:03;;;;;;;29.27;18.02;;;11.50;90.90;;;;;;5077120;28;20059;-78
2022/12/29 03:51:29;;;;;;;26.38;18.23;;;11.50;91.10;;;;;;5095340;28;20044;-78
2022/12/29 03:53:55;;;;;;;24.40;17.52;;;11.50;90.90;;;;;;5094896;28;20471;-78
2022/12/29 03:56:20;;;;;;;24.10;17.65;;;11.60;90.90;;;;;;5095278;28;20043;-78
2022/12/29 03:58:46;;;;;;;27.95;19.63;;;11.60;90.90;;;;;;5095024;28;20028;-79
2022/12/29 04:01:12;;;;;;;27.02;20.08;;;11.60;90.90;;;;;;5076848;28;20322;-78
2022/12/29 04:03:38;;;;;;;30.02;20.83;;;11.60;90.90;;;;;;5094912;28;20050;-78
2022/12/29 04:06:04;;;;;;;28.20;18.88;;;11.60;90.90;;;;;;5077159;28;20467;-78
2022/12/29 04:08:30;;;;;;;29.25;20.27;;;11.70;91.00;;;;;;5095262;28;20104;-78
2022/12/29 04:10:55;;;;;;;31.23;21.15;;;11.60;90.80;;;;;;5094770;28;20107;-79
2022/12/29 04:13:21;;;;;;;25.17;19.45;;;11.70;90.90;;;;;;5095067;28;20043;-79
2022/12/29 04:15:47;;;;;;;28.35;21.23;;;11.80;90.80;;;;;;5095891;28;20074;-78
2022/12/29 04:18:13;;;;;;;28.88;19.08;;;11.80;90.90;;;;;;5076489;28;20028;-78
2022/12/29 04:23:23;;;;;;;;;;;11.90;90.70;;;;;;5095884;28;20532;-77
2022/12/29 04:25:48;;;;;;;29.05;19.15;;;11.90;90.80;;;;;;5094753;28;19907;-78
2022/12/29 04:28:15;;;;;;;25.83;19.42;;;12.00;90.80;;;;;;5094456;28;20052;-78
2022/12/29 04:30:42;;;;;;;26.25;19.00;;;11.90;90.70;;;;;;5076189;28;20032;-79
2022/12/29 04:33:08;;;;;;;29.00;19.27;;;11.90;90.80;;;;;;5094824;28;20075;-78
2022/12/29 04:35:34;;;;;;;29.20;19.38;;;11.90;90.80;;;;;;5075773;28;20028;-78
2022/12/29 04:37:59;;;;;;;23.88;17.60;;;11.90;90.70;;;;;;5076340;28;20488;-77
2022/12/29 04:40:25;;;;;;;24.10;17.52;;;12.00;90.80;;;;;;5094321;28;20119;-78
2022/12/29 04:42:51;;;;;;;25.30;17.92;;;12.00;90.70;;;;;;5094208;28;20032;-78
2022/12/29 04:45:17;;;;;;;26.45;19.42;;;12.00;90.70;;;;;;5094386;28;20032;-78
2022/12/29 04:47:42;;;;;;;27.13;19.27;;;12.00;90.60;;;;;;5094317;28;20082;-78
2022/12/29 04:50:09;;;;;;;30.17;20.48;;;12.00;90.70;;;;;;5076105;28;20025;-78
2022/12/29 04:52:35;;;;;;;29.60;19.73;;;11.90;90.60;;;;;;5076064;28;20044;-77
2022/12/29 04:55:01;;;;;;;26.27;18.70;;;11.90;90.70;;;;;;5075865;28;20468;-79
2022/12/29 04:57:27;;;;;;;26.45;18.42;;;11.80;90.90;;;;;;5094179;28;20081;-78
2022/12/29 04:59:52;;;;;;;27.60;19.65;;;11.70;91.00;;;;;;5094631;28;20032;-77
2022/12/29 05:02:18;;;;;;;24.10;19.02;;;11.60;91.00;;;;;;5094317;28;20039;-77
2022/12/29 05:04:44;;;;;;;25.67;18.50;;;11.60;91.00;;;;;;5078569;28;20101;-77
2022/12/29 05:07:10;;;;;;;28.35;18.05;;;11.60;91.00;;;;;;5098325;28;20496;-78
2022/12/29 05:09:35;;;;;;;28.05;19.70;;;11.60;91.00;;;;;;5078109;28;20032;-77
2022/12/29 05:12:01;;;;;;;25.88;18.63;;;11.60;91.10;;;;;;5102311;28;20127;-78
2022/12/29 05:14:27;;;;;;;26.33;19.70;;;11.60;91.00;;;;;;5094213;28;20036;-78
2022/12/29 05:16:52;;;;;;;28.60;18.55;;;11.60;91.10;;;;;;5094072;28;20421;-79
2022/12/29 05:19:18;;;;;;;25.27;19.67;;;11.50;91.00;;;;;;5094369;28;20471;-78
2022/12/29 05:21:44;;;;;;;27.45;20.45;;;11.50;91.10;;;;;;5094058;28;20036;-77
2022/12/29 05:24:10;;;;;;;29.10;19.83;;;11.50;91.10;;;;;;5093460;28;20028;-79
2022/12/29 05:26:36;;;;;;;27.95;18.77;;;11.60;91.20;;;;;;5093623;28;20451;-77
2022/12/29 05:29:01;;;;;;;27.00;18.63;;;11.60;91.10;;;;;;5093486;28;20047;-78
2022/12/29 05:31:27;;;;;;;23.83;17.42;;;11.70;91.10;;;;;;5075285;28;20044;-76
2022/12/29 05:33:53;;;;;;;22.88;17.63;;;11.70;91.10;;;;;;5075370;28;20028;-77
2022/12/29 05:36:19;;;;;;;25.42;17.45;;;11.70;91.00;;;;;;5093335;28;20031;-77
2022/12/29 05:38:45;;;;;;;25.17;17.02;;;11.70;90.90;;;;;;5093429;28;20036;-78
2022/12/29 05:41:11;;;;;;;23.40;17.13;;;11.70;90.90;;;;;;5075395;28;20177;-78
2022/12/29 05:43:36;;;;;;;23.63;16.40;;;11.60;91.00;;;;;;5075626;28;20047;-78
2022/12/29 05:46:03;;;;;;;21.10;16.25;;;11.70;91.00;;;;;;5076032;28;20028;-79
2022/12/29 05:48:28;;;;;;;25.67;16.25;;;11.70;90.90;;;;;;5093164;28;20028;-79
2022/12/29 05:50:54;;;;;;;21.98;16.10;;;11.80;91.10;;;;;;5093244;28;20023;-78
2022/12/29 05:53:20;;;;;;;24.02;15.48;;;11.80;90.90;;;;;;5075331;28;20479;-78
2022/12/29 05:55:49;;;;;;;23.95;16.40;;;11.90;91.00;;;;;;5094010;28;20092;-79
2022/12/29 05:58:16;;;;;;;23.48;15.90;;;12.00;91.00;;;;;;5075382;28;20040;-79
2022/12/29 06:00:42;;;;;;;23.38;16.85;;;12.00;90.90;;;;;;5092927;28;20036;-78
2022/12/29 06:03:07;;;;;;;24.70;16.80;;;12.00;90.90;;;;;;5075079;28;20494;-78
2022/12/29 06:05:33;;;;;;;23.45;16.17;;;12.00;90.80;;;;;;5092685;28;20448;-78
2022/12/29 06:07:59;;;;;;;21.98;16.88;;;11.90;90.80;;;;;;5093026;28;20064;-78
2022/12/29 06:10:25;;;;;;;23.27;15.05;;;11.90;90.90;;;;;;5074760;28;20032;-78
2022/12/29 06:12:51;;;;;;;23.38;16.77;;;11.90;90.90;;;;;;5074659;28;20549;-78
2022/12/29 06:15:17;;;;;;;22.48;15.73;;;11.80;90.90;;;;;;5092850;28;20032;-78
2022/12/29 06:17:43;;;;;;;21.20;15.98;;;11.80;90.80;;;;;;5074991;28;20078;-80
2022/12/29 06:20:09;;;;;;;23.52;16.73;;;11.80;90.90;;;;;;5093467;28;20510;-79
2022/12/29 06:22:35;;;;;;;23.90;16.73;;;11.80;91.00;;;;;;5093558;28;20039;-78
2022/12/29 06:25:01;;;;;;;23.13;15.88;;;11.70;90.90;;;;;;5094900;28;20028;-78
2022/12/29 06:27:27;;;;;;;23.20;17.25;;;11.70;91.10;;;;;;5076541;28;20086;-77
2022/12/29 06:29:53;;;;;;;26.92;17.20;;;11.70;91.30;;;;;;5093397;28;20119;-77
2022/12/29 06:32:19;;;;;;;28.52;16.98;;;11.70;91.30;;;;;;5076446;28;20090;-79
2022/12/29 06:34:45;;;;;;;23.45;16.35;;;11.70;91.20;;;;;;5094468;28;20028;-77
2022/12/29 06:37:11;;;;;;;20.70;15.70;;;11.70;91.20;;;;;;5095414;28;20485;-77
2022/12/29 06:39:37;;;;;;;26.70;17.25;;;11.70;91.30;;;;;;5096422;28;20334;-77
2022/12/29 06:42:02;;;;;;;27.58;16.80;;;11.60;91.20;;;;;;5098992;28;20039;-77
2022/12/29 06:44:28;;;;;;;23.35;16.25;;;11.60;91.20;;;;;;5098577;28;20032;-78
2022/12/29 06:46:54;;;;;;;23.45;17.10;;;11.60;91.50;;;;;;5078483;28;20040;-78
2022/12/29 06:49:20;;;;;;;26.20;17.60;;;11.60;91.40;;;;;;5096821;28;20109;-77
2022/12/29 06:51:46;;;;;;;24.80;17.13;;;11.50;91.30;;;;;;5092932;28;20452;-77
2022/12/29 06:54:12;;;;;;;27.50;16.77;;;11.50;91.30;;;;;;5092648;28;20332;-80
2022/12/29 06:56:38;;;;;;;23.90;16.98;;;11.60;91.50;;;;;;5092972;28;20037;-78
2022/12/29 06:59:04;;;;;;;22.38;16.70;;;11.60;91.30;;;;;;5094796;28;20051;-77
2022/12/29 07:01:30;;;;;;;21.10;16.15;;;11.60;91.50;;;;;;5096610;28;20029;-79
2022/12/29 07:03:57;;;;;;;24.33;17.88;;;11.60;91.40;;;;;;5097278;28;20032;-79
2022/12/29 07:06:23;;;;;;;23.52;16.80;;;11.60;91.40;;;;;;5078466;28;20123;-80
2022/12/29 07:08:49;;;;;;;26.65;16.23;;;11.70;91.30;;;;;;5096169;28;20032;-78
2022/12/29 07:11:14;;;;;;;23.95;16.95;;;11.70;91.30;;;;;;5096295;28;20094;-79
2022/12/29 07:13:40;;;;;;;27.02;15.77;;;11.80;91.30;;;;;;5096293;28;20492;-79
2022/12/29 07:16:10;;;;;;;25.55;15.70;;;11.90;91.20;;;;;;5077770;28;20111;-78
2022/12/29 07:18:36;;;;;;;25.88;15.68;;;11.90;91.20;;;;;;5096023;28;20161;-79
2022/12/29 07:21:02;;;;;;;24.85;16.23;;;12.00;91.10;;;;;;5095905;28;20036;-78
2022/12/29 07:23:28;;;;;;;24.25;16.45;;;12.00;91.00;;;;;;5111668;28;20032;-79
2022/12/29 07:26:05;;;;;;;24.52;16.45;;;12.00;91.00;;;;;;5092280;28;20089;-78
2022/12/29 07:28:32;;;;;;;21.73;16.30;;;12.10;91.00;;;;;;5088625;28;20052;-79
2022/12/29 07:30:58;;;;;;;28.73;18.15;;;12.20;91.00;;;;;;5077594;28;20122;-79
2022/12/29 07:33:24;;;;;;;24.05;16.13;;;12.20;90.90;;;;;;5096942;28;20148;-78
2022/12/29 07:35:50;;;;;;;28.75;17.10;;;12.30;91.00;;;;;;5077492;28;20529;-79
2022/12/29 07:38:16;;;;;;;25.52;16.27;;;12.40;91.00;;;;;;5096090;28;20036;-79
2022/12/29 07:40:43;;;;;;;28.42;16.55;;;12.50;90.80;;;;;;5077504;28;20480;-79
2022/12/29 07:43:08;;;;;;;34.10;17.23;;;12.50;90.80;;;;;;5096223;28;20455;-79
2022/12/29 07:45:34;;;;;;;23.85;16.50;;;12.60;90.70;;;;;;5077563;28;20043;-79
2022/12/29 07:48:02;;;;;;;25.70;17.35;;;12.60;90.70;;;;;;5077418;28;20028;-79
2022/12/29 07:50:28;;;;;;;33.67;16.05;;;12.60;90.70;;;;;;5077475;28;20046;-79
2022/12/29 07:52:53;;;;;;;26.70;16.30;;;12.70;90.70;;;;;;5077202;28;20139;-79
2022/12/29 07:55:19;;;;;;;30.00;16.83;;;12.80;90.70;;;;;;5076852;28;20123;-80
2022/12/29 07:57:45;;;;;;;34.05;17.00;;;12.80;90.60;;;;;;5076766;28;20036;-79
2022/12/29 08:00:11;;;;;;;26.15;16.48;;;12.80;90.50;;;;;;5077349;28;20028;-81
2022/12/29 08:02:37;;;;;;;33.13;17.83;;;12.80;90.60;;;;;;5076525;28;20063;-79
2022/12/29 08:05:03;;;;;;;29.45;16.90;;;12.80;90.60;;;;;;5076432;28;20063;-78
2022/12/29 08:07:28;;;;;;;35.50;17.35;;;12.80;90.60;;;;;;5076712;28;20446;-79
2022/12/29 08:09:54;;;;;;;33.63;17.13;;;12.80;90.70;;;;;;5075797;28;20388;-80
2022/12/29 08:12:20;;;;;;;31.73;17.65;;;12.80;90.70;;;;;;5076041;28;20044;-78
2022/12/29 08:14:46;;;;;;;27.70;17.13;;;12.80;90.60;;;;;;5094818;28;20414;-79
2022/12/29 08:17:11;;;;;;;29.85;17.42;;;12.80;90.60;;;;;;5076466;28;20036;-79
2022/12/29 08:19:38;;;;;;;32.72;17.17;;;12.80;90.80;;;;;;5094676;28;20036;-80
2022/12/29 08:22:03;;;;;;;29.25;17.50;;;12.90;90.60;;;;;;5094975;28;20053;-80
2022/12/29 08:24:29;;;;;;;31.92;16.67;;;12.90;90.60;;;;;;5076738;28;20036;-79
2022/12/29 08:26:55;;;;;;;30.48;16.00;;;12.90;90.60;;;;;;5094628;28;20036;-78
2022/12/29 08:29:21;;;;;;;30.40;16.23;;;13.00;90.70;;;;;;5076080;28;20037;-79
2022/12/29 08:31:47;;;;;;;28.13;17.10;;;13.00;90.60;;;;;;5094154;28;20037;-79
2022/12/29 08:34:14;;;;;;;27.38;16.98;;;13.10;90.70;;;;;;5076316;28;20117;-79
2022/12/29 08:36:40;;;;;;;27.38;17.17;;;13.10;90.50;;;;;;5094995;28;20039;-79
2022/12/29 08:39:06;;;;;;;29.77;16.42;;;13.20;90.50;;;;;;5076402;28;20121;-80
2022/12/29 08:41:31;;;;;;;25.25;17.27;;;13.30;90.40;;;;;;5094550;28;20111;-79
2022/12/29 08:43:57;;;;;;;26.52;16.70;;;13.50;90.30;;;;;;5075189;28;20112;-78
2022/12/29 08:46:23;;;;;;;35.67;16.67;;;13.60;90.20;;;;;;5092968;28;20036;-79
2022/12/29 08:48:49;;;;;;;25.17;16.38;;;13.70;90.10;;;;;;5093407;28;20032;-76
2022/12/29 08:51:15;;;;;;;28.25;15.73;;;13.80;90.10;;;;;;5093344;28;20044;-77
2022/12/29 08:53:40;;;;;;;32.38;15.43;;;13.90;90.00;;;;;;5075213;28;20036;-78
2022/12/29 08:56:08;;;;;;;27.92;16.20;;;14.00;90.00;;;;;;5092432;28;20032;-78
2022/12/29 08:58:34;;;;;;;36.47;16.77;;;14.10;90.00;;;;;;5093073;28;20114;-77
2022/12/29 09:00:59;;;;;;;17.05;10.15;;;14.10;89.70;;;;;;5074765;28;20063;-76
2022/12/29 09:03:26;;;;;;;24.73;14.60;;;14.20;89.80;;;;;;5075014;28;20036;-77
2022/12/29 09:05:53;;;;;;;25.15;14.00;;;14.30;89.80;;;;;;5075404;28;20036;-76
2022/12/29 09:08:20;;;;;;;29.63;15.55;;;14.30;89.80;;;;;;5075546;28;20119;-76
2022/12/29 09:10:45;;;;;;;23.70;13.48;;;14.40;89.50;;;;;;5074835;28;20480;-75
2022/12/29 09:13:13;;;;;;;22.73;11.85;;;14.50;89.20;;;;;;5092395;28;20058;-76
2022/12/29 09:15:39;;;;;;;26.88;12.50;;;14.60;89.40;;;;;;5093208;28;20028;-78
2022/12/29 09:18:06;;;;;;;23.75;10.70;;;14.70;89.30;;;;;;5093020;28;20059;-77
2022/12/29 09:20:32;;;;;;;17.40;9.60;;;14.90;89.40;;;;;;5093320;28;20559;-77
2022/12/29 09:22:58;;;;;;;21.63;9.13;;;14.90;89.00;;;;;;5093829;28;20111;-78
2022/12/29 09:25:24;;;;;;;17.05;9.38;;;15.00;89.10;;;;;;5092445;28;20107;-77
2022/12/29 09:27:52;;;;;;;16.50;9.40;;;15.10;88.90;;;;;;5093216;28;20139;-78
2022/12/29 09:30:19;;;;;;;22.27;10.43;;;15.20;89.20;;;;;;5092196;28;20431;-77
2022/12/29 09:32:45;;;;;;;19.88;9.77;;;15.30;89.00;;;;;;5092566;28;20059;-77
2022/12/29 09:35:11;;;;;;;14.77;8.30;;;15.40;88.80;;;;;;5074621;28;20067;-78
2022/12/29 09:37:37;;;;;;;21.88;9.48;;;15.50;89.50;;;;;;5094958;28;20080;-76
2022/12/29 09:40:05;;;;;;;20.35;8.77;;;15.50;88.70;;;;;;5099578;28;20102;-75
2022/12/29 09:43:14;;;;;;;17.13;9.10;;;15.50;88.70;;;;;;5100858;28;20036;-77
2022/12/29 09:46:21;;;;;;;20.40;9.00;;;15.50;88.50;;;;;;5013109;28;20581;-76
2022/12/29 09:48:59;;;;;;;17.17;8.77;;;15.50;88.50;;;;;;5010380;28;20124;-76
2022/12/29 09:51:26;;;;;;;19.52;9.07;;;15.60;88.90;;;;;;5064587;28;20101;-78
2022/12/29 09:53:56;;;;;;;18.35;9.20;;;15.70;88.80;;;;;;5075087;28;20177;-75
2022/12/29 09:56:25;;;;;;;17.88;8.85;;;15.70;88.80;;;;;;5082005;28;20097;-81
2022/12/29 09:59:04;;;;;;;16.38;8.45;;;15.80;88.90;;;;;;5074897;28;20051;-77
2022/12/29 10:01:32;;;;;;;14.23;8.57;;;15.80;88.50;;;;;;5094763;28;20031;-85
2022/12/29 10:04:02;;;;;;;15.50;8.07;;;15.90;88.70;;;;;;5077326;28;20032;-83
2022/12/29 10:06:31;;;;;;;16.88;7.63;;;16.00;88.70;;;;;;5075496;28;20040;-72
2022/12/29 10:09:15;;;;;;;17.60;8.30;;;16.00;88.40;;;;;;5084706;28;20084;-79
2022/12/29 10:11:55;;;;;;;15.68;7.60;;;16.10;88.10;;;;;;5093434;28;20683;-87
2022/12/29 10:14:38;;;;;;;14.52;6.80;;;16.20;87.70;;;;;;5093897;28;20395;-81
2022/12/29 10:17:36;;;;;;;14.52;6.45;;;16.40;87.10;;;;;;5077487;28;20032;-86
2022/12/29 10:20:15;;;;;;;14.85;7.38;;;16.50;87.20;;;;;;5058514;28;20169;-83
2022/12/29 10:23:26;;;;;;;15.63;6.65;;;16.60;86.70;;;;;;5073308;28;20043;-79
2022/12/29 10:25:57;;;;;;;14.77;5.45;;;16.70;86.70;;;;;;5042609;28;20135;-87
2022/12/29 10:28:45;;;;;;;15.75;4.70;;;16.80;86.30;;;;;;5095155;28;20040;-79
2022/12/29 10:31:22;;;;;;;11.60;4.63;;;16.90;85.90;;;;;;5077277;28;20039;-88
2022/12/29 10:33:53;;;;;;;11.93;4.35;;;17.10;84.70;;;;;;5094470;28;20513;-78
2022/12/29 10:36:28;;;;;;;13.20;4.95;;;17.10;84.60;;;;;;5095685;28;20115;-75
2022/12/29 10:39:03;;;;;;;13.05;4.35;;;17.10;84.40;;;;;;5077544;28;20064;-77
2022/12/29 10:41:33;;;;;;;8.95;3.67;;;17.20;84.30;;;;;;5079123;28;20032;-74
2022/12/29 10:44:00;;;;;;;9.55;3.85;;;17.10;84.20;;;;;;5096350;28;20073;-76
2022/12/29 10:46:34;;;;;;;12.10;4.68;;;17.10;83.90;;;;;;5095882;28;20032;-74
2022/12/29 10:49:01;;;;;;;;;;;17.10;83.50;;;;;;5094913;28;20044;-76
2022/12/29 10:51:37;;;;;;;10.85;4.05;;;17.20;82.30;;;;;;5090982;28;19912;-76
2022/12/29 10:54:15;;;;;;;9.80;4.43;;;17.20;83.30;;;;;;5098727;28;20035;-75
2022/12/29 10:56:47;;;;;;;10.88;4.22;;;17.30;82.90;;;;;;5116387;28;20038;-76
2022/12/29 10:59:27;;;;;;;489.00;43.65;;;17.50;82.20;;;;;;5079587;28;20177;-75
2022/12/29 11:01:56;;;;;;;20.95;5.05;;;17.60;82.00;;;;;;5096245;28;20104;-76
2022/12/29 11:04:49;;;;;;;23.08;5.28;;;17.60;81.90;;;;;;5076979;28;20598;-79
2022/12/29 11:07:18;;;;;;;22.38;5.90;;;17.60;82.00;;;;;;5096064;28;20533;-80
2022/12/29 11:09:45;;;;;;;18.48;5.20;;;17.60;82.10;;;;;;5075553;28;20032;-81
2022/12/29 11:12:23;;;;;;;15.00;4.60;;;17.70;82.00;;;;;;5077405;28;20067;-80
2022/12/29 11:15:07;;;;;;;11.65;4.68;;;17.70;82.00;;;;;;5076653;28;20043;-81
2022/12/29 11:17:47;;;;;;;13.35;4.40;;;17.70;81.80;;;;;;5076771;28;20197;-80
2022/12/29 11:20:32;;;;;;;10.95;4.70;;;17.70;81.80;;;;;;5078105;28;20085;-79
2022/12/29 11:22:58;;;;;;;10.57;4.30;;;17.70;81.60;;;;;;5077228;28;20093;-73
2022/12/29 11:25:24;;;;;;;12.55;4.85;;;17.70;81.30;;;;;;5076637;28;20024;-80
2022/12/29 11:28:15;;;;;;;13.70;4.20;;;17.80;81.30;;;;;;5094567;28;20051;-77
2022/12/29 11:30:41;;;;;;;12.38;4.60;;;17.80;81.10;;;;;;5074602;28;20123;-75
2022/12/29 11:33:09;;;;;;;10.27;4.30;;;17.70;81.50;;;;;;5076864;28;20036;-76
2022/12/29 11:35:44;;;;;;;12.50;3.92;;;17.70;81.60;;;;;;5095248;28;20089;-75
2022/12/29 11:38:24;;;;;;;11.23;4.30;;;17.60;81.40;;;;;;5095212;28;20035;-76
2022/12/29 11:40:50;;;;;;;11.35;4.68;;;17.60;81.50;;;;;;5095336;28;20032;-78
2022/12/29 11:43:29;;;;;;;13.48;4.65;;;17.60;81.20;;;;;;5095215;28;20034;-76
2022/12/29 11:45:56;;;;;;;10.38;4.30;;;17.70;80.90;;;;;;5075820;28;20038;-77
2022/12/29 11:48:22;;;;;;;16.05;4.32;;;17.70;80.70;;;;;;5096966;28;20107;-77
2022/12/29 11:50:59;;;;;;;10.13;4.28;;;17.80;80.70;;;;;;5098170;28;20111;-78
2022/12/29 11:53:31;;;;;;;8.60;3.92;;;17.80;80.50;;;;;;5077114;28;20044;-76
2022/12/29 11:56:10;;;;;;;7.40;3.10;;;17.80;80.60;;;;;;5076925;28;20032;-78
2022/12/29 11:58:38;;;;;;;8.45;3.30;;;17.70;80.20;;;;;;5095109;28;20529;-78
2022/12/29 12:01:34;;;;;;;8.45;3.25;;;17.70;80.10;;;;;;5076814;28;20135;-75
2022/12/29 12:04:19;;;;;;;10.85;3.85;;;17.90;79.80;;;;;;5095338;28;20036;-77
2022/12/29 12:06:55;;;;;;;10.98;3.80;;;18.00;79.60;;;;;;5096117;28;20090;-78
2022/12/29 12:09:31;;;;;;;8.52;3.90;;;18.10;78.90;;;;;;5095338;28;20027;-78
2022/12/29 12:11:59;;;;;;;10.50;4.05;;;18.10;78.70;;;;;;5077398;28;20114;-76
2022/12/29 12:14:38;;;;;;;10.95;3.45;;;18.10;78.60;;;;;;5076934;28;20119;-77
2022/12/29 12:17:18;;;;;;;10.00;3.90;;;18.10;78.80;;;;;;5095200;28;20039;-78
2022/12/29 12:19:57;;;;;;;7.25;3.45;;;18.10;78.70;;;;;;5096827;28;20055;-76
2022/12/29 12:22:36;;;;;;;10.98;4.00;;;18.00;78.40;;;;;;5107720;28;20048;-77
2022/12/29 12:25:14;;;;;;;10.07;4.40;;;18.00;78.50;;;;;;5078396;28;20391;-76
2022/12/29 12:27:48;;;;;;;7.40;3.83;;;17.90;78.70;;;;;;5094705;28;20047;-76
2022/12/29 12:30:20;;;;;;;12.15;3.85;;;17.90;78.60;;;;;;5094457;28;20029;-77
2022/12/29 12:33:06;;;;;;;10.35;3.60;;;17.90;78.40;;;;;;5076199;28;20052;-76
2022/12/29 12:36:06;;;;;;;9.50;4.00;;;17.90;78.20;;;;;;5076691;28;20040;-76
2022/12/29 12:38:45;;;;;;;11.82;5.20;;;18.00;78.30;;;;;;5095989;28;20036;-78
2022/12/29 12:41:14;;;;;;;9.75;3.75;;;18.00;78.10;;;;;;5079139;28;20036;-76
2022/12/29 12:43:49;;;;;;;10.40;4.30;;;18.00;78.00;;;;;;5095055;28;20028;-77
2022/12/29 12:46:23;;;;;;;9.68;4.10;;;18.10;77.80;;;;;;5076763;28;20047;-76
2022/12/29 12:49:01;;;;;;;10.00;4.20;;;18.10;77.40;;;;;;5094364;28;20072;-76
2022/12/29 12:51:39;;;;;;;6.70;3.50;;;18.10;77.40;;;;;;5076142;28;20048;-77
2022/12/29 12:54:37;;;;;;;8.13;4.40;;;18.00;77.20;;;;;;5075762;28;20032;-78
2022/12/29 12:57:14;;;;;;;8.80;3.90;;;18.00;77.00;;;;;;5093705;28;20035;-76
2022/12/29 13:00:00;;;;;;;9.00;4.10;;;18.10;77.30;;;;;;5075543;28;20398;-79
2022/12/29 13:02:44;;;;;;;9.82;4.45;;;18.10;77.00;;;;;;5093598;28;20028;-77
2022/12/29 13:05:10;;;;;;;8.88;3.85;;;18.10;77.20;;;;;;5093696;28;20044;-77
2022/12/29 13:07:49;;;;;;;13.85;4.03;;;18.10;76.70;;;;;;5093554;28;20024;-76
2022/12/29 13:10:21;;;;;;;14.20;4.10;;;18.10;76.70;;;;;;5093617;28;20549;-76
2022/12/29 13:13:13;;;;;;;15.50;6.72;;;18.10;76.40;;;;;;5075433;28;20395;-77
2022/12/29 13:15:47;;;;;;;16.67;7.25;;;18.10;76.50;;;;;;5075373;28;20039;-75
2022/12/29 13:18:25;;;;;;;11.95;5.70;;;18.00;76.60;;;;;;5075142;28;20032;-76
2022/12/29 13:21:07;;;;;;;19.67;5.78;;;18.00;76.70;;;;;;5074777;28;20036;-76
2022/12/29 13:23:52;;;;;;;10.93;4.70;;;17.90;76.90;;;;;;5075353;28;20446;-76
2022/12/29 13:26:29;;;;;;;10.85;5.25;;;17.80;76.90;;;;;;5093296;28;20495;-76
2022/12/29 13:29:03;;;;;;;8.98;5.13;;;17.80;77.30;;;;;;5093047;28;20130;-76
2022/12/29 13:32:14;;;;;;;10.63;5.65;;;17.80;77.30;;;;;;5074751;28;20480;-76